sensor_id;sensor_type;location;lat;lon;timestamp;temperature;humidity
4584;DHT22;2304;47.606;12.186;2023-08-06T00:03:04;16.70;95.70
4584;DHT22;2304;47.606;12.186;2023-08-06T00:08:06;16.50;95.70
4584;DHT22;2304;47.606;12.186;2023-08-06T00:13:09;16.40;95.50
4584;DHT22;2304;47.606;12.186;2023-08-06T00:18:11;16.50;95.90
4584;DHT22;2304;47.606;12.186;2023-08-06T00:23:13;16.30;95.50
4584;DHT22;2304;47.606;12.186;2023-08-06T00:28:16;16.30;95.90
4584;DHT22;2304;47.606;12.186;2023-08-06T00:33:18;16.30;96.50
4584;DHT22;2304;47.606;12.186;2023-08-06T00:38:20;16.20;96.20
4584;DHT22;2304;47.606;12.186;2023-08-06T00:43:23;16.30;96.30
4584;DHT22;2304;47.606;12.186;2023-08-06T00:48:25;16.20;95.80
4584;DHT22;2304;47.606;12.186;2023-08-06T00:53:27;16.20;95.30
4584;DHT22;2304;47.606;12.186;2023-08-06T00:58:30;16.30;95.30
4584;DHT22;2304;47.606;12.186;2023-08-06T01:03:32;16.30;94.90
4584;DHT22;2304;47.606;12.186;2023-08-06T01:08:46;16.30;94.70
4584;DHT22;2304;47.606;12.186;2023-08-06T01:13:58;16.30;94.90
4584;DHT22;2304;47.606;12.186;2023-08-06T01:19:01;16.30;94.90
4584;DHT22;2304;47.606;12.186;2023-08-06T01:24:04;16.20;94.50
4584;DHT22;2304;47.606;12.186;2023-08-06T01:29:10;16.20;94.20
4584;DHT22;2304;47.606;12.186;2023-08-06T01:34:17;16.20;94.30
4584;DHT22;2304;47.606;12.186;2023-08-06T01:39:21;16.20;94.70
4584;DHT22;2304;47.606;12.186;2023-08-06T01:44:23;16.10;94.80
4584;DHT22;2304;47.606;12.186;2023-08-06T01:49:25;16.20;95.00
4584;DHT22;2304;47.606;12.186;2023-08-06T01:54:28;16.20;94.80
4584;DHT22;2304;47.606;12.186;2023-08-06T01:59:30;16.20;94.90
4584;DHT22;2304;47.606;12.186;2023-08-06T02:04:32;16.20;95.10
4584;DHT22;2304;47.606;12.186;2023-08-06T02:09:35;16.20;94.40
4584;DHT22;2304;47.606;12.186;2023-08-06T02:14:37;16.20;94.60
4584;DHT22;2304;47.606;12.186;2023-08-06T02:19:39;16.30;94.40
4584;DHT22;2304;47.606;12.186;2023-08-06T02:24:42;16.30;93.50
4584;DHT22;2304;47.606;12.186;2023-08-06T02:29:44;16.30;94.00
4584;DHT22;2304;47.606;12.186;2023-08-06T02:34:46;16.20;93.90
4584;DHT22;2304;47.606;12.186;2023-08-06T02:39:49;16.30;94.20
4584;DHT22;2304;47.606;12.186;2023-08-06T02:44:51;16.20;94.10
4584;DHT22;2304;47.606;12.186;2023-08-06T02:49:55;16.20;94.00
4584;DHT22;2304;47.606;12.186;2023-08-06T02:54:58;16.20;93.80
4584;DHT22;2304;47.606;12.186;2023-08-06T03:00:00;16.10;92.70
4584;DHT22;2304;47.606;12.186;2023-08-06T03:05:03;16.10;93.20
4584;DHT22;2304;47.606;12.186;2023-08-06T03:10:08;16.20;93.40
4584;DHT22;2304;47.606;12.186;2023-08-06T03:15:10;16.10;93.20
4584;DHT22;2304;47.606;12.186;2023-08-06T03:20:12;16.10;93.10
4584;DHT22;2304;47.606;12.186;2023-08-06T03:25:16;16.10;93.50
4584;DHT22;2304;47.606;12.186;2023-08-06T03:30:18;16.10;93.20
4584;DHT22;2304;47.606;12.186;2023-08-06T03:35:20;16.10;93.30
4584;DHT22;2304;47.606;12.186;2023-08-06T03:40:23;16.10;93.20
4584;DHT22;2304;47.606;12.186;2023-08-06T03:45:25;16.10;93.20
4584;DHT22;2304;47.606;12.186;2023-08-06T03:50:27;16.00;91.90
4584;DHT22;2304;47.606;12.186;2023-08-06T03:55:30;15.80;90.60
4584;DHT22;2304;47.606;12.186;2023-08-06T04:00:32;15.80;91.60
4584;DHT22;2304;47.606;12.186;2023-08-06T04:05:34;15.70;92.50
4584;DHT22;2304;47.606;12.186;2023-08-06T04:10:37;15.60;92.70
4584;DHT22;2304;47.606;12.186;2023-08-06T04:15:39;15.50;93.50
4584;DHT22;2304;47.606;12.186;2023-08-06T04:20:43;15.50;93.80
4584;DHT22;2304;47.606;12.186;2023-08-06T04:25:47;15.50;93.70
4584;DHT22;2304;47.606;12.186;2023-08-06T04:30:49;15.60;94.00
4584;DHT22;2304;47.606;12.186;2023-08-06T04:35:54;15.70;93.80
4584;DHT22;2304;47.606;12.186;2023-08-06T04:40:58;15.60;94.00
4584;DHT22;2304;47.606;12.186;2023-08-06T04:46:00;15.60;93.30
4584;DHT22;2304;47.606;12.186;2023-08-06T04:51:02;15.70;93.40
4584;DHT22;2304;47.606;12.186;2023-08-06T04:56:05;15.70;93.50
4584;DHT22;2304;47.606;12.186;2023-08-06T05:01:07;15.80;93.40
4584;DHT22;2304;47.606;12.186;2023-08-06T05:06:09;15.80;93.30
4584;DHT22;2304;47.606;12.186;2023-08-06T05:11:12;15.90;93.20
4584;DHT22;2304;47.606;12.186;2023-08-06T05:16:14;15.90;93.50
4584;DHT22;2304;47.606;12.186;2023-08-06T05:21:16;15.90;92.70
4584;DHT22;2304;47.606;12.186;2023-08-06T05:26:19;15.90;92.50
4584;DHT22;2304;47.606;12.186;2023-08-06T05:31:21;15.90;92.80
4584;DHT22;2304;47.606;12.186;2023-08-06T05:36:22;16.00;93.30
4584;DHT22;2304;47.606;12.186;2023-08-06T05:41:26;15.90;91.80
4584;DHT22;2304;47.606;12.186;2023-08-06T05:46:28;16.00;92.90
4584;DHT22;2304;47.606;12.186;2023-08-06T05:51:29;16.10;92.10
4584;DHT22;2304;47.606;12.186;2023-08-06T05:56:33;16.00;92.10
4584;DHT22;2304;47.606;12.186;2023-08-06T06:01:35;16.10;92.40
4584;DHT22;2304;47.606;12.186;2023-08-06T06:06:38;16.00;89.70
4584;DHT22;2304;47.606;12.186;2023-08-06T06:11:41;16.20;89.80
4584;DHT22;2304;47.606;12.186;2023-08-06T06:16:43;16.10;90.00
4584;DHT22;2304;47.606;12.186;2023-08-06T06:21:45;16.40;90.20
4584;DHT22;2304;47.606;12.186;2023-08-06T06:26:48;16.10;89.80
4584;DHT22;2304;47.606;12.186;2023-08-06T06:31:50;16.10;89.70
4584;DHT22;2304;47.606;12.186;2023-08-06T06:36:51;16.10;90.50
4584;DHT22;2304;47.606;12.186;2023-08-06T06:41:55;16.10;91.20
4584;DHT22;2304;47.606;12.186;2023-08-06T06:46:56;16.10;91.30
4584;DHT22;2304;47.606;12.186;2023-08-06T06:51:58;16.00;91.20
4584;DHT22;2304;47.606;12.186;2023-08-06T06:57:02;16.00;91.70
4584;DHT22;2304;47.606;12.186;2023-08-06T07:02:04;16.10;92.10
4584;DHT22;2304;47.606;12.186;2023-08-06T07:07:06;16.20;91.70
4584;DHT22;2304;47.606;12.186;2023-08-06T07:12:09;16.30;92.20
4584;DHT22;2304;47.606;12.186;2023-08-06T07:17:11;16.30;90.80
4584;DHT22;2304;47.606;12.186;2023-08-06T07:22:13;16.50;90.20
4584;DHT22;2304;47.606;12.186;2023-08-06T07:27:16;16.50;88.50
4584;DHT22;2304;47.606;12.186;2023-08-06T07:32:18;16.50;88.70
4584;DHT22;2304;47.606;12.186;2023-08-06T07:37:20;16.50;88.90
4584;DHT22;2304;47.606;12.186;2023-08-06T07:42:23;16.60;89.50
4584;DHT22;2304;47.606;12.186;2023-08-06T07:47:25;16.60;89.30
4584;DHT22;2304;47.606;12.186;2023-08-06T07:52:27;16.70;90.20
4584;DHT22;2304;47.606;12.186;2023-08-06T07:57:30;16.70;88.60
4584;DHT22;2304;47.606;12.186;2023-08-06T08:02:32;16.80;89.10
4584;DHT22;2304;47.606;12.186;2023-08-06T08:07:34;16.60;89.20
4584;DHT22;2304;47.606;12.186;2023-08-06T08:12:37;16.60;90.10
4584;DHT22;2304;47.606;12.186;2023-08-06T08:17:39;16.80;90.20
4584;DHT22;2304;47.606;12.186;2023-08-06T08:22:41;16.80;90.40
4584;DHT22;2304;47.606;12.186;2023-08-06T08:27:44;16.80;91.20
4584;DHT22;2304;47.606;12.186;2023-08-06T08:32:46;17.00;92.00
4584;DHT22;2304;47.606;12.186;2023-08-06T08:37:48;17.00;91.40
4584;DHT22;2304;47.606;12.186;2023-08-06T08:42:52;17.10;91.40
4584;DHT22;2304;47.606;12.186;2023-08-06T08:47:54;17.30;91.20
4584;DHT22;2304;47.606;12.186;2023-08-06T08:52:56;17.10;90.10
4584;DHT22;2304;47.606;12.186;2023-08-06T08:58:00;17.10;88.90
4584;DHT22;2304;47.606;12.186;2023-08-06T09:03:02;17.10;86.60
4584;DHT22;2304;47.606;12.186;2023-08-06T09:08:05;17.40;86.40
4584;DHT22;2304;47.606;12.186;2023-08-06T09:13:10;17.50;84.70
4584;DHT22;2304;47.606;12.186;2023-08-06T09:18:13;17.70;85.50
4584;DHT22;2304;47.606;12.186;2023-08-06T09:23:15;18.10;83.00
4584;DHT22;2304;47.606;12.186;2023-08-06T09:28:18;18.30;82.70
4584;DHT22;2304;47.606;12.186;2023-08-06T09:33:20;18.20;83.40
4584;DHT22;2304;47.606;12.186;2023-08-06T09:38:25;18.30;82.80
4584;DHT22;2304;47.606;12.186;2023-08-06T09:43:28;18.30;81.70
4584;DHT22;2304;47.606;12.186;2023-08-06T09:48:30;18.20;82.80
4584;DHT22;2304;47.606;12.186;2023-08-06T09:53:32;18.20;80.60
4584;DHT22;2304;47.606;12.186;2023-08-06T09:58:38;18.30;82.20
4584;DHT22;2304;47.606;12.186;2023-08-06T10:03:40;18.40;75.90
4584;DHT22;2304;47.606;12.186;2023-08-06T10:08:43;18.70;77.70
4584;DHT22;2304;47.606;12.186;2023-08-06T10:13:47;19.10;81.90
4584;DHT22;2304;47.606;12.186;2023-08-06T10:18:49;19.20;79.80
4584;DHT22;2304;47.606;12.186;2023-08-06T10:23:54;19.40;77.50
4584;DHT22;2304;47.606;12.186;2023-08-06T10:28:57;19.30;75.50
4584;DHT22;2304;47.606;12.186;2023-08-06T10:33:59;19.00;66.90
4584;DHT22;2304;47.606;12.186;2023-08-06T10:39:01;18.80;63.60
4584;DHT22;2304;47.606;12.186;2023-08-06T10:44:10;18.60;68.20
4584;DHT22;2304;47.606;12.186;2023-08-06T10:49:14;18.70;72.40
4584;DHT22;2304;47.606;12.186;2023-08-06T10:54:19;18.70;70.30
4584;DHT22;2304;47.606;12.186;2023-08-06T10:59:22;18.80;70.50
4584;DHT22;2304;47.606;12.186;2023-08-06T11:04:24;18.90;71.00
4584;DHT22;2304;47.606;12.186;2023-08-06T11:09:26;18.90;69.00
4584;DHT22;2304;47.606;12.186;2023-08-06T11:14:30;18.90;73.10
4584;DHT22;2304;47.606;12.186;2023-08-06T11:19:32;18.90;72.80
4584;DHT22;2304;47.606;12.186;2023-08-06T11:24:35;18.90;68.00
4584;DHT22;2304;47.606;12.186;2023-08-06T11:29:40;18.90;67.60
4584;DHT22;2304;47.606;12.186;2023-08-06T11:34:43;19.10;68.30
4584;DHT22;2304;47.606;12.186;2023-08-06T11:39:47;19.30;67.60
4584;DHT22;2304;47.606;12.186;2023-08-06T11:44:51;19.20;66.40
4584;DHT22;2304;47.606;12.186;2023-08-06T11:49:52;19.20;67.10
4584;DHT22;2304;47.606;12.186;2023-08-06T11:55:02;19.20;66.50
4584;DHT22;2304;47.606;12.186;2023-08-06T12:00:10;19.00;64.00
4584;DHT22;2304;47.606;12.186;2023-08-06T12:05:13;18.90;65.30
4584;DHT22;2304;47.606;12.186;2023-08-06T12:10:16;18.70;64.40
4584;DHT22;2304;47.606;12.186;2023-08-06T12:15:19;18.70;63.90
4584;DHT22;2304;47.606;12.186;2023-08-06T12:20:21;18.70;64.00
4584;DHT22;2304;47.606;12.186;2023-08-06T12:25:23;18.70;62.40
4584;DHT22;2304;47.606;12.186;2023-08-06T12:30:26;18.70;61.80
4584;DHT22;2304;47.606;12.186;2023-08-06T12:35:28;18.40;59.10
4584;DHT22;2304;47.606;12.186;2023-08-06T12:40:30;18.30;58.40
4584;DHT22;2304;47.606;12.186;2023-08-06T12:45:33;18.30;56.40
4584;DHT22;2304;47.606;12.186;2023-08-06T12:50:35;18.10;57.10
4584;DHT22;2304;47.606;12.186;2023-08-06T12:55:37;18.20;57.90
4584;DHT22;2304;47.606;12.186;2023-08-06T13:00:42;18.30;58.30
4584;DHT22;2304;47.606;12.186;2023-08-06T13:05:44;18.30;57.50
4584;DHT22;2304;47.606;12.186;2023-08-06T13:10:46;18.40;59.50
4584;DHT22;2304;47.606;12.186;2023-08-06T13:15:49;18.40;56.80
4584;DHT22;2304;47.606;12.186;2023-08-06T13:20:53;18.30;57.40
4584;DHT22;2304;47.606;12.186;2023-08-06T13:25:55;18.30;57.40
4584;DHT22;2304;47.606;12.186;2023-08-06T13:30:58;18.40;56.40
4584;DHT22;2304;47.606;12.186;2023-08-06T13:36:00;18.50;57.90
4584;DHT22;2304;47.606;12.186;2023-08-06T13:41:02;18.50;57.00
4584;DHT22;2304;47.606;12.186;2023-08-06T13:46:05;18.60;57.90
4584;DHT22;2304;47.606;12.186;2023-08-06T13:51:07;18.50;56.30
4584;DHT22;2304;47.606;12.186;2023-08-06T13:56:10;18.60;56.30
4584;DHT22;2304;47.606;12.186;2023-08-06T14:01:13;18.70;58.50
4584;DHT22;2304;47.606;12.186;2023-08-06T14:06:18;18.90;58.50
4584;DHT22;2304;47.606;12.186;2023-08-06T14:11:20;19.00;58.70
4584;DHT22;2304;47.606;12.186;2023-08-06T14:16:23;19.10;58.40
4584;DHT22;2304;47.606;12.186;2023-08-06T14:21:25;19.10;58.50
4584;DHT22;2304;47.606;12.186;2023-08-06T14:26:27;19.10;58.50
4584;DHT22;2304;47.606;12.186;2023-08-06T14:31:30;18.60;52.80
4584;DHT22;2304;47.606;12.186;2023-08-06T14:36:32;18.50;56.70
4584;DHT22;2304;47.606;12.186;2023-08-06T14:41:34;18.40;55.40
4584;DHT22;2304;47.606;12.186;2023-08-06T14:46:37;18.40;55.70
4584;DHT22;2304;47.606;12.186;2023-08-06T14:51:39;18.40;59.30
4584;DHT22;2304;47.606;12.186;2023-08-06T14:56:41;18.50;59.20
4584;DHT22;2304;47.606;12.186;2023-08-06T15:01:44;18.70;58.90
4584;DHT22;2304;47.606;12.186;2023-08-06T15:06:46;18.90;64.10
4584;DHT22;2304;47.606;12.186;2023-08-06T15:11:48;18.90;59.40
4584;DHT22;2304;47.606;12.186;2023-08-06T15:16:51;18.90;59.90
4584;DHT22;2304;47.606;12.186;2023-08-06T15:21:53;18.90;62.60
4584;DHT22;2304;47.606;12.186;2023-08-06T15:26:55;18.80;63.80
4584;DHT22;2304;47.606;12.186;2023-08-06T15:31:58;18.80;66.10
4584;DHT22;2304;47.606;12.186;2023-08-06T15:37:00;18.80;68.50
4584;DHT22;2304;47.606;12.186;2023-08-06T15:42:02;18.70;68.20
4584;DHT22;2304;47.606;12.186;2023-08-06T15:47:05;18.50;68.10
4584;DHT22;2304;47.606;12.186;2023-08-06T15:52:07;18.40;68.00
4584;DHT22;2304;47.606;12.186;2023-08-06T15:57:09;18.30;69.70
4584;DHT22;2304;47.606;12.186;2023-08-06T16:02:13;18.20;70.40
4584;DHT22;2304;47.606;12.186;2023-08-06T16:07:16;18.00;69.80
4584;DHT22;2304;47.606;12.186;2023-08-06T16:12:19;17.90;69.70
4584;DHT22;2304;47.606;12.186;2023-08-06T16:17:23;17.90;70.90
4584;DHT22;2304;47.606;12.186;2023-08-06T16:22:25;17.90;69.40
4584;DHT22;2304;47.606;12.186;2023-08-06T16:27:27;17.80;70.50
4584;DHT22;2304;47.606;12.186;2023-08-06T16:32:30;17.80;71.40
4584;DHT22;2304;47.606;12.186;2023-08-06T16:37:32;17.70;64.20
4584;DHT22;2304;47.606;12.186;2023-08-06T16:42:34;17.80;67.90
4584;DHT22;2304;47.606;12.186;2023-08-06T16:47:37;17.70;69.00
4584;DHT22;2304;47.606;12.186;2023-08-06T16:52:39;17.60;72.40
4584;DHT22;2304;47.606;12.186;2023-08-06T16:57:41;17.50;72.70
4584;DHT22;2304;47.606;12.186;2023-08-06T17:02:44;17.80;75.00
4584;DHT22;2304;47.606;12.186;2023-08-06T17:07:46;17.60;75.00
4584;DHT22;2304;47.606;12.186;2023-08-06T17:12:50;17.70;77.90
4584;DHT22;2304;47.606;12.186;2023-08-06T17:17:55;17.70;77.00
4584;DHT22;2304;47.606;12.186;2023-08-06T17:22:57;17.60;75.50
4584;DHT22;2304;47.606;12.186;2023-08-06T17:27:58;17.50;76.80
4584;DHT22;2304;47.606;12.186;2023-08-06T17:33:03;17.40;75.20
4584;DHT22;2304;47.606;12.186;2023-08-06T17:38:04;17.30;76.10
4584;DHT22;2304;47.606;12.186;2023-08-06T17:43:06;17.10;74.30
4584;DHT22;2304;47.606;12.186;2023-08-06T17:48:09;17.00;76.30
4584;DHT22;2304;47.606;12.186;2023-08-06T17:53:15;16.90;77.80
4584;DHT22;2304;47.606;12.186;2023-08-06T17:58:17;17.00;78.30
4584;DHT22;2304;47.606;12.186;2023-08-06T18:03:21;16.90;76.60
4584;DHT22;2304;47.606;12.186;2023-08-06T18:08:24;16.90;77.00
4584;DHT22;2304;47.606;12.186;2023-08-06T18:13:26;17.00;76.30
4584;DHT22;2304;47.606;12.186;2023-08-06T18:18:30;16.90;76.40
4584;DHT22;2304;47.606;12.186;2023-08-06T18:23:31;16.80;75.20
4584;DHT22;2304;47.606;12.186;2023-08-06T18:28:33;16.80;76.10
4584;DHT22;2304;47.606;12.186;2023-08-06T18:33:37;16.70;76.40
4584;DHT22;2304;47.606;12.186;2023-08-06T18:38:39;16.60;75.50
4584;DHT22;2304;47.606;12.186;2023-08-06T18:43:42;16.60;76.20
4584;DHT22;2304;47.606;12.186;2023-08-06T18:48:46;16.50;75.90
4584;DHT22;2304;47.606;12.186;2023-08-06T18:53:48;16.40;77.60
4584;DHT22;2304;47.606;12.186;2023-08-06T18:58:50;16.30;76.90
4584;DHT22;2304;47.606;12.186;2023-08-06T19:03:53;16.30;78.60
4584;DHT22;2304;47.606;12.186;2023-08-06T19:08:55;16.20;77.50
4584;DHT22;2304;47.606;12.186;2023-08-06T19:13:57;16.10;79.00
4584;DHT22;2304;47.606;12.186;2023-08-06T19:19:00;16.00;77.80
4584;DHT22;2304;47.606;12.186;2023-08-06T19:24:02;15.80;78.10
4584;DHT22;2304;47.606;12.186;2023-08-06T19:29:04;15.50;72.00
4584;DHT22;2304;47.606;12.186;2023-08-06T19:34:07;15.50;72.80
4584;DHT22;2304;47.606;12.186;2023-08-06T19:39:09;15.50;75.10
4584;DHT22;2304;47.606;12.186;2023-08-06T19:44:11;15.50;74.40
4584;DHT22;2304;47.606;12.186;2023-08-06T19:49:14;15.50;77.10
4584;DHT22;2304;47.606;12.186;2023-08-06T19:54:16;15.50;76.70
4584;DHT22;2304;47.606;12.186;2023-08-06T19:59:18;15.40;77.40
4584;DHT22;2304;47.606;12.186;2023-08-06T20:04:22;15.40;76.90
4584;DHT22;2304;47.606;12.186;2023-08-06T20:09:23;15.40;77.30
4584;DHT22;2304;47.606;12.186;2023-08-06T20:14:25;15.30;76.80
4584;DHT22;2304;47.606;12.186;2023-08-06T20:19:29;15.30;77.20
4584;DHT22;2304;47.606;12.186;2023-08-06T20:24:30;15.20;78.00
4584;DHT22;2304;47.606;12.186;2023-08-06T20:29:32;15.20;78.70
4584;DHT22;2304;47.606;12.186;2023-08-06T20:34:36;15.10;78.10
4584;DHT22;2304;47.606;12.186;2023-08-06T20:39:37;15.30;78.70
4584;DHT22;2304;47.606;12.186;2023-08-06T20:44:39;15.00;78.50
4584;DHT22;2304;47.606;12.186;2023-08-06T20:49:42;14.90;77.80
4584;DHT22;2304;47.606;12.186;2023-08-06T20:54:44;14.90;79.90
4584;DHT22;2304;47.606;12.186;2023-08-06T20:59:46;15.00;78.80
4584;DHT22;2304;47.606;12.186;2023-08-06T21:04:49;15.00;79.90
4584;DHT22;2304;47.606;12.186;2023-08-06T21:09:52;15.00;80.00
4584;DHT22;2304;47.606;12.186;2023-08-06T21:14:54;15.00;79.90
4584;DHT22;2304;47.606;12.186;2023-08-06T21:19:57;14.90;81.60
4584;DHT22;2304;47.606;12.186;2023-08-06T21:24:59;14.90;81.10
4584;DHT22;2304;47.606;12.186;2023-08-06T21:30:01;14.90;81.10
4584;DHT22;2304;47.606;12.186;2023-08-06T21:35:05;14.90;79.80
4584;DHT22;2304;47.606;12.186;2023-08-06T21:40:08;14.80;80.20
4584;DHT22;2304;47.606;12.186;2023-08-06T21:45:10;14.80;79.10
4584;DHT22;2304;47.606;12.186;2023-08-06T21:50:13;14.80;79.90
4584;DHT22;2304;47.606;12.186;2023-08-06T21:55:15;14.90;79.60
4584;DHT22;2304;47.606;12.186;2023-08-06T22:00:17;14.80;79.20
4584;DHT22;2304;47.606;12.186;2023-08-06T22:05:20;14.80;80.00
4584;DHT22;2304;47.606;12.186;2023-08-06T22:10:22;14.70;79.50
4584;DHT22;2304;47.606;12.186;2023-08-06T22:15:24;14.70;80.10
4584;DHT22;2304;47.606;12.186;2023-08-06T22:20:27;14.60;80.30
4584;DHT22;2304;47.606;12.186;2023-08-06T22:25:29;14.50;79.20
4584;DHT22;2304;47.606;12.186;2023-08-06T22:30:31;14.50;79.80
4584;DHT22;2304;47.606;12.186;2023-08-06T22:35:34;14.40;78.20
4584;DHT22;2304;47.606;12.186;2023-08-06T22:40:36;14.30;78.80
4584;DHT22;2304;47.606;12.186;2023-08-06T22:45:38;14.30;77.00
4584;DHT22;2304;47.606;12.186;2023-08-06T22:50:41;14.30;77.80
4584;DHT22;2304;47.606;12.186;2023-08-06T22:55:43;14.20;77.30
4584;DHT22;2304;47.606;12.186;2023-08-06T23:00:45;14.30;79.50
4584;DHT22;2304;47.606;12.186;2023-08-06T23:05:48;14.30;79.30
4584;DHT22;2304;47.606;12.186;2023-08-06T23:10:50;14.10;77.30
4584;DHT22;2304;47.606;12.186;2023-08-06T23:15:52;14.00;78.40
4584;DHT22;2304;47.606;12.186;2023-08-06T23:20:55;14.00;77.90
4584;DHT22;2304;47.606;12.186;2023-08-06T23:25:57;14.20;79.30
4584;DHT22;2304;47.606;12.186;2023-08-06T23:30:59;13.90;79.20
4584;DHT22;2304;47.606;12.186;2023-08-06T23:36:02;13.90;80.50
4584;DHT22;2304;47.606;12.186;2023-08-06T23:41:04;13.80;81.40
4584;DHT22;2304;47.606;12.186;2023-08-06T23:46:06;13.80;81.20
4584;DHT22;2304;47.606;12.186;2023-08-06T23:51:09;13.90;81.80
4584;DHT22;2304;47.606;12.186;2023-08-06T23:56:11;13.80;83.30
